createdAt,value
2022-12-08T00:01:07.782Z,62.96
2022-12-08T00:03:34.716Z,62.87
2022-12-08T00:06:20.760Z,62.56
2022-12-08T00:09:06.097Z,62.68
2022-12-08T00:11:32.740Z,62.43
2022-12-08T00:14:02.310Z,62.46
2022-12-08T00:16:28.935Z,62.41
2022-12-08T00:19:00.267Z,62.12
2022-12-08T00:21:26.894Z,62.50
2022-12-08T00:23:55.244Z,63.09
2022-12-08T00:26:22.063Z,63.10
2022-12-08T00:28:48.687Z,63.30
2022-12-08T00:31:17.828Z,63.28
2022-12-08T00:33:44.512Z,63.86
2022-12-08T00:36:12.808Z,63.94
2022-12-08T00:38:39.727Z,63.68
2022-12-08T00:41:12.458Z,63.81
2022-12-08T00:43:41.909Z,63.82
2022-12-08T00:46:14.109Z,63.56
2022-12-08T00:48:43.199Z,63.41
2022-12-08T00:51:14.707Z,63.15
2022-12-08T00:53:41.522Z,63.25
2022-12-08T00:56:08.200Z,63.20
2022-12-08T00:58:34.753Z,63.08
2022-12-08T01:01:01.363Z,62.96
2022-12-08T01:03:28.039Z,62.83
2022-12-08T01:05:57.139Z,62.81
2022-12-08T01:08:23.722Z,62.54
2022-12-08T01:10:50.378Z,62.40
2022-12-08T01:13:17.006Z,62.56
2022-12-08T01:15:43.622Z,62.60
2022-12-08T01:18:10.144Z,62.82
2022-12-08T01:20:36.694Z,62.66
2022-12-08T01:23:05.366Z,62.89
2022-12-08T01:25:35.502Z,62.86
2022-12-08T01:28:07.474Z,63.35
2022-12-08T01:30:34.446Z,63.87
2022-12-08T01:33:01.037Z,63.94
2022-12-08T01:35:28.039Z,64.13
2022-12-08T01:37:54.724Z,64.14
2022-12-08T01:40:21.275Z,64.16
2022-12-08T01:42:47.824Z,64.28
2022-12-08T01:45:15.794Z,64.24
2022-12-08T01:47:43.327Z,64.39
2022-12-08T01:50:11.035Z,64.57
2022-12-08T01:52:41.318Z,64.47
2022-12-08T01:55:18.277Z,64.57
2022-12-08T01:57:46.443Z,64.52
2022-12-08T02:00:14.679Z,64.32
2022-12-08T02:02:47.410Z,64.33
2022-12-08T02:05:14.026Z,64.61
2022-12-08T02:07:41.092Z,64.88
2022-12-08T02:10:08.027Z,64.95
2022-12-08T02:12:34.625Z,64.92
2022-12-08T02:15:05.071Z,64.75
2022-12-08T02:17:54.379Z,64.85
2022-12-08T02:20:40.027Z,64.86
2022-12-08T02:23:18.124Z,64.72
2022-12-08T02:26:03.447Z,64.71
2022-12-08T02:28:48.777Z,64.72
2022-12-08T02:31:30.417Z,64.55
2022-12-08T02:34:02.434Z,64.67
2022-12-08T02:36:32.135Z,64.51
2022-12-08T02:39:17.246Z,64.37
2022-12-08T02:41:59.529Z,64.54
2022-12-08T02:44:29.119Z,65.33
2022-12-08T02:47:00.035Z,65.45
2022-12-08T02:49:30.379Z,65.35
2022-12-08T02:52:05.972Z,65.09
2022-12-08T02:54:32.505Z,64.80
2022-12-08T02:57:17.916Z,64.71
2022-12-08T02:59:53.635Z,64.87
2022-12-08T03:02:26.097Z,64.72
2022-12-08T03:05:11.577Z,64.44
2022-12-08T03:07:44.785Z,64.35
2022-12-08T03:10:26.457Z,64.01
2022-12-08T03:12:54.468Z,64.45
2022-12-08T03:15:21.089Z,64.34
2022-12-08T03:17:49.250Z,64.01
2022-12-08T03:20:17.209Z,63.97
2022-12-08T03:22:44.541Z,63.80
2022-12-08T03:25:24.635Z,63.71
2022-12-08T03:27:55.355Z,63.64
2022-12-08T03:30:24.297Z,63.88
2022-12-08T03:33:15.130Z,63.83
2022-12-08T03:35:46.379Z,63.74
2022-12-08T03:38:16.831Z,63.69
2022-12-08T03:41:21.654Z,63.57
2022-12-08T03:43:49.051Z,63.78
2022-12-08T03:46:16.381Z,63.37
2022-12-08T03:48:43.097Z,63.35
2022-12-08T03:51:10.284Z,63.03
2022-12-08T03:53:36.832Z,62.99
2022-12-08T03:56:04.809Z,63.26
2022-12-08T03:58:37.059Z,63.24
2022-12-08T04:01:07.021Z,63.36
2022-12-08T04:03:36.017Z,63.39
2022-12-08T04:06:02.628Z,63.11
2022-12-08T04:08:29.301Z,63.03
2022-12-08T04:10:56.169Z,62.49
2022-12-08T04:13:25.319Z,62.65
2022-12-08T04:15:51.904Z,63.13
2022-12-08T04:18:21.266Z,63.25
2022-12-08T04:20:47.822Z,62.83
2022-12-08T04:23:16.774Z,62.94
2022-12-08T04:25:43.549Z,63.09
2022-12-08T04:28:10.081Z,63.02
2022-12-08T04:30:37.021Z,62.83
2022-12-08T04:33:05.950Z,62.85
2022-12-08T04:35:32.520Z,62.74
2022-12-08T04:38:00.295Z,62.64
2022-12-08T04:40:27.069Z,62.55
2022-12-08T04:42:53.640Z,62.16
2022-12-08T04:45:20.274Z,62.16
2022-12-08T04:47:46.973Z,62.00
2022-12-08T04:50:13.530Z,62.29
2022-12-08T04:52:40.241Z,62.18
2022-12-08T04:55:07.000Z,61.90
2022-12-08T04:57:35.851Z,62.05
2022-12-08T05:00:02.940Z,62.31
2022-12-08T05:02:30.985Z,62.38
2022-12-08T05:05:34.011Z,62.47
2022-12-08T05:08:05.934Z,62.60
2022-12-08T05:10:35.134Z,62.46
2022-12-08T05:13:07.450Z,62.47
2022-12-08T05:15:34.166Z,62.45
2022-12-08T05:18:00.822Z,62.52
2022-12-08T05:20:27.585Z,62.47
2022-12-08T05:22:54.162Z,62.60
2022-12-08T05:25:23.268Z,62.59
2022-12-08T05:27:49.906Z,62.64
2022-12-08T05:30:18.924Z,62.53
2022-12-08T05:32:45.497Z,62.95
2022-12-08T05:35:12.124Z,62.95
2022-12-08T05:37:41.155Z,62.96
2022-12-08T05:40:08.251Z,62.85
2022-12-08T05:42:37.401Z,62.73
2022-12-08T05:45:06.565Z,62.98
2022-12-08T05:47:36.229Z,63.00
2022-12-08T05:50:06.262Z,62.77
2022-12-08T05:52:33.177Z,63.11
2022-12-08T05:55:02.202Z,63.14
2022-12-08T05:57:28.767Z,63.00
2022-12-08T05:59:57.202Z,62.95
2022-12-08T06:02:23.857Z,62.88
2022-12-08T06:04:53.590Z,62.97
2022-12-08T06:07:22.768Z,62.96
2022-12-08T06:09:49.465Z,63.13
2022-12-08T06:12:16.211Z,62.69
2022-12-08T06:14:45.146Z,63.00
2022-12-08T06:17:11.831Z,62.93
2022-12-08T06:19:38.489Z,62.77
2022-12-08T06:22:05.079Z,63.05
2022-12-08T06:24:31.854Z,62.74
2022-12-08T06:26:58.454Z,62.50
2022-12-08T06:29:26.888Z,62.55
2022-12-08T06:31:53.634Z,62.42
2022-12-08T06:34:22.604Z,62.39
2022-12-08T06:36:49.279Z,62.39
2022-12-08T06:39:20.602Z,62.39
2022-12-08T06:42:05.967Z,62.46
2022-12-08T06:44:34.940Z,62.52
2022-12-08T06:47:04.626Z,62.68
2022-12-08T06:49:31.248Z,62.70
2022-12-08T06:52:00.125Z,62.72
2022-12-08T06:54:26.797Z,62.51
2022-12-08T06:56:53.553Z,62.92
2022-12-08T06:59:23.356Z,63.33
2022-12-08T07:01:50.090Z,63.31
2022-12-08T07:04:16.671Z,63.10
2022-12-08T07:06:50.676Z,63.29
2022-12-08T07:09:17.377Z,63.51
2022-12-08T07:11:44.007Z,63.10
2022-12-08T07:14:10.973Z,62.74
2022-12-08T07:16:39.305Z,62.46
2022-12-08T07:19:06.292Z,62.89
2022-12-08T07:21:32.975Z,62.90
2022-12-08T07:23:59.749Z,62.56
2022-12-08T07:26:27.049Z,62.99
2022-12-08T07:28:53.734Z,62.87
2022-12-08T07:31:21.966Z,62.57
2022-12-08T07:33:51.661Z,62.34
2022-12-08T07:36:18.364Z,62.23
2022-12-08T07:38:47.564Z,62.08
2022-12-08T07:41:17.027Z,61.51
2022-12-08T07:43:43.739Z,61.87
2022-12-08T07:46:31.429Z,61.64
2022-12-08T07:49:03.254Z,61.52
2022-12-08T07:51:30.043Z,61.36
2022-12-08T07:53:56.588Z,61.23
2022-12-08T07:56:23.514Z,60.88
2022-12-08T07:58:50.290Z,60.56
2022-12-08T08:01:24.634Z,60.75
2022-12-08T08:03:51.479Z,60.45
2022-12-08T08:06:20.514Z,60.57
2022-12-08T08:08:47.516Z,60.23
2022-12-08T08:11:20.809Z,60.10
2022-12-08T08:13:48.125Z,60.26
2022-12-08T08:16:17.215Z,60.06
2022-12-08T08:18:44.016Z,59.87
2022-12-08T08:23:57.286Z,59.69
2022-12-08T08:26:23.909Z,59.40
2022-12-08T08:28:50.657Z,59.71
2022-12-08T08:31:17.367Z,59.68
2022-12-08T08:33:44.141Z,59.97
2022-12-08T08:36:11.123Z,60.00
2022-12-08T08:38:40.091Z,60.02
2022-12-08T08:41:12.601Z,59.72
2022-12-08T08:43:41.610Z,59.98
2022-12-08T08:46:11.155Z,60.03
2022-12-08T08:48:38.161Z,59.98
2022-12-08T08:51:08.735Z,59.32
2022-12-08T08:53:35.471Z,59.16
2022-12-08T08:56:03.002Z,58.66
2022-12-08T08:58:32.203Z,58.70
2022-12-08T09:00:58.880Z,58.93
2022-12-08T09:03:25.557Z,58.82
2022-12-08T09:05:52.824Z,58.45
2022-12-08T09:08:21.841Z,58.37
2022-12-08T09:10:48.746Z,57.95
2022-12-08T09:13:15.350Z,57.83
2022-12-08T09:15:44.370Z,57.89
2022-12-08T09:18:13.175Z,56.84
2022-12-08T09:20:42.574Z,57.90
2022-12-08T09:23:12.273Z,58.64
2022-12-08T09:25:39.198Z,58.37
2022-12-08T09:28:08.115Z,58.34
2022-12-08T09:30:35.638Z,58.02
2022-12-08T09:33:04.558Z,58.07
2022-12-08T09:35:31.181Z,57.43
2022-12-08T09:37:58.712Z,58.30
2022-12-08T09:40:25.492Z,58.17
2022-12-08T09:42:57.467Z,57.46
2022-12-08T09:45:24.018Z,57.60
2022-12-08T09:47:53.384Z,57.56
2022-12-08T09:50:39.811Z,57.69
2022-12-08T09:53:24.012Z,58.03
2022-12-08T09:55:54.285Z,58.12
2022-12-08T09:58:32.338Z,57.84
2022-12-08T10:01:03.552Z,57.83
2022-12-08T10:03:30.373Z,57.07
2022-12-08T10:06:08.072Z,56.93
2022-12-08T10:08:47.652Z,56.75
2022-12-08T10:11:16.766Z,56.22
2022-12-08T10:13:43.423Z,55.98
2022-12-08T10:16:23.014Z,55.73
2022-12-08T10:18:56.223Z,56.19
2022-12-08T10:21:25.823Z,56.58
2022-12-08T10:23:56.347Z,57.22
2022-12-08T10:26:23.055Z,56.98
2022-12-08T10:28:52.044Z,56.99
2022-12-08T10:31:25.136Z,56.49
2022-12-08T10:33:59.319Z,56.67
2022-12-08T10:36:48.382Z,56.41
2022-12-08T10:39:31.132Z,56.64
2022-12-08T10:42:08.433Z,56.19
2022-12-08T10:44:39.064Z,55.93
2022-12-08T10:47:12.564Z,55.80
2022-12-08T10:49:39.179Z,55.70
2022-12-08T10:52:09.905Z,55.38
2022-12-08T10:54:38.944Z,54.88
2022-12-08T10:57:05.560Z,54.59
2022-12-08T10:59:33.310Z,54.34
2022-12-08T11:02:00.303Z,54.55
2022-12-08T11:04:31.711Z,54.27
2022-12-08T11:06:58.303Z,54.18
2022-12-08T11:09:35.106Z,54.08
2022-12-08T11:12:09.412Z,53.92
2022-12-08T11:14:44.900Z,53.57
2022-12-08T11:17:17.537Z,53.42
2022-12-08T11:19:54.767Z,52.94
2022-12-08T11:22:21.276Z,53.60
2022-12-08T11:24:54.423Z,53.90
2022-12-08T11:27:23.359Z,53.43
2022-12-08T11:29:49.900Z,54.15
2022-12-08T11:32:16.387Z,54.10
2022-12-08T11:34:44.862Z,53.96
2022-12-08T11:37:16.597Z,54.14
2022-12-08T11:39:47.026Z,53.78
2022-12-08T11:42:14.337Z,54.08
2022-12-08T11:44:46.942Z,54.12
2022-12-08T11:47:30.621Z,53.84
2022-12-08T11:50:05.441Z,53.36
2022-12-08T11:52:42.069Z,53.86
2022-12-08T11:55:23.973Z,53.26
2022-12-08T11:57:50.987Z,53.06
2022-12-08T12:00:18.000Z,52.76
2022-12-08T12:02:48.445Z,52.67
2022-12-08T12:06:09.311Z,52.44
2022-12-08T12:08:39.521Z,52.74
2022-12-08T12:11:12.191Z,51.84
2022-12-08T12:13:54.105Z,51.78
2022-12-08T12:16:23.823Z,51.55
2022-12-08T12:18:51.137Z,51.51
2022-12-08T12:21:31.089Z,51.29
2022-12-08T12:24:00.974Z,51.00
2022-12-08T12:26:51.507Z,50.98
2022-12-08T12:29:21.456Z,51.96
2022-12-08T12:31:55.218Z,51.52
2022-12-08T12:34:28.214Z,50.85
2022-12-08T12:37:10.312Z,51.36
2022-12-08T12:39:52.231Z,51.39
2022-12-08T12:42:34.305Z,52.45
2022-12-08T12:45:18.065Z,53.26
2022-12-08T12:47:48.642Z,54.01
2022-12-08T12:50:28.175Z,54.54
2022-12-08T12:52:54.818Z,54.39
2022-12-08T12:55:21.897Z,54.52
2022-12-08T12:57:52.928Z,54.65
2022-12-08T13:00:22.597Z,54.77
2022-12-08T13:02:53.798Z,54.99
2022-12-08T13:05:20.846Z,55.20
2022-12-08T13:07:56.483Z,55.65
2022-12-08T13:10:24.395Z,55.83
2022-12-08T13:13:05.656Z,56.05
2022-12-08T13:15:36.370Z,56.54
2022-12-08T13:18:03.191Z,56.40
2022-12-08T13:20:29.772Z,56.34
2022-12-08T13:23:04.876Z,56.26
2022-12-08T13:25:40.573Z,56.59
2022-12-08T13:28:16.259Z,56.68
2022-12-08T13:30:46.936Z,56.65
2022-12-08T13:33:23.164Z,56.40
2022-12-08T13:36:03.891Z,56.68
2022-12-08T13:38:31.147Z,56.58
2022-12-08T13:40:58.179Z,56.50
2022-12-08T13:43:29.773Z,56.52
2022-12-08T13:55:25.867Z,55.47
2022-12-08T13:57:28.782Z,56.29
2022-12-08T13:59:57.196Z,55.93
2022-12-08T14:02:30.594Z,54.72
2022-12-08T14:07:46.394Z,54.96
2022-12-08T14:10:20.339Z,55.09
2022-12-08T14:12:47.336Z,55.18
2022-12-08T14:15:14.190Z,55.37
2022-12-08T14:17:41.000Z,55.75
2022-12-08T14:20:26.976Z,55.41
2022-12-08T14:22:53.763Z,55.49
2022-12-08T14:25:20.718Z,55.79
2022-12-08T14:27:47.389Z,56.00
2022-12-08T14:30:20.713Z,56.08
2022-12-08T14:32:48.340Z,55.88
2022-12-08T14:35:21.238Z,56.32
2022-12-08T14:37:48.457Z,57.12
2022-12-08T14:40:23.059Z,57.07
2022-12-08T14:42:51.246Z,57.52
2022-12-08T14:45:26.455Z,57.84
2022-12-08T14:47:53.160Z,57.88
2022-12-08T14:50:39.369Z,57.64
2022-12-08T14:53:15.915Z,57.46
2022-12-08T14:55:45.806Z,57.99
2022-12-08T14:58:20.530Z,58.11
2022-12-08T15:00:48.368Z,57.73
2022-12-08T15:03:16.263Z,57.31
2022-12-08T15:05:42.901Z,57.30
2022-12-08T15:08:17.972Z,57.37
2022-12-08T15:10:48.406Z,57.16
2022-12-08T15:13:16.433Z,57.22
2022-12-08T15:15:47.385Z,57.39
2022-12-08T15:18:18.717Z,56.88
2022-12-08T15:20:54.521Z,56.78
2022-12-08T15:23:21.331Z,56.87
2022-12-08T15:25:49.657Z,56.72
2022-12-08T15:28:17.650Z,56.81
2022-12-08T15:30:44.344Z,56.27
2022-12-08T15:33:10.830Z,56.65
2022-12-08T15:35:40.990Z,56.77
2022-12-08T15:38:12.214Z,56.44
2022-12-08T15:40:38.839Z,56.32
2022-12-08T15:43:09.294Z,55.61
2022-12-08T15:45:38.305Z,56.08
2022-12-08T15:48:05.347Z,56.10
2022-12-08T15:50:31.917Z,55.70
2022-12-08T15:52:58.504Z,55.63
2022-12-08T15:55:25.024Z,55.24
2022-12-08T15:58:51.323Z,55.15
2022-12-08T16:00:55.661Z,55.05
2022-12-08T16:04:02.736Z,54.79
2022-12-08T16:07:04.316Z,55.36
2022-12-08T16:09:11.371Z,55.27
2022-12-08T16:12:06.632Z,54.93
2022-12-08T16:15:39.798Z,55.92
2022-12-08T16:17:21.250Z,55.86
2022-12-08T16:19:48.980Z,56.15
2022-12-08T16:25:18.353Z,55.51
2022-12-08T16:28:12.429Z,55.84
2022-12-08T16:30:35.058Z,55.57
2022-12-08T16:33:01.713Z,55.62
2022-12-08T16:35:28.423Z,56.21
2022-12-08T16:37:59.656Z,57.15
2022-12-08T16:40:26.148Z,57.41
2022-12-08T16:43:00.082Z,57.41
2022-12-08T16:45:29.581Z,57.57
2022-12-08T16:47:59.559Z,57.88
2022-12-08T16:50:30.676Z,57.67
2022-12-08T16:53:00.793Z,57.96
2022-12-08T16:55:29.600Z,58.18
2022-12-08T16:57:56.727Z,57.99
2022-12-08T17:00:27.173Z,57.71
2022-12-08T17:02:54.115Z,58.08
2022-12-08T17:05:21.547Z,58.44
2022-12-08T17:07:51.392Z,58.22
2022-12-08T17:10:25.290Z,58.24
2022-12-08T17:12:52.066Z,58.52
2022-12-08T17:15:20.109Z,58.33
2022-12-08T17:17:46.826Z,58.22
2022-12-08T17:20:15.050Z,57.59
2022-12-08T17:22:41.606Z,58.03
2022-12-08T17:25:08.324Z,58.02
2022-12-08T17:27:35.054Z,58.13
2022-12-08T17:30:01.589Z,57.97
2022-12-08T17:32:30.927Z,58.44
2022-12-08T17:34:59.037Z,58.22
2022-12-08T17:37:26.230Z,58.00
2022-12-08T17:39:53.211Z,58.41
2022-12-08T17:42:25.945Z,58.21
2022-12-08T17:44:53.628Z,57.90
2022-12-08T17:47:20.169Z,57.61
2022-12-08T17:49:49.163Z,57.50
2022-12-08T17:52:18.236Z,57.25
2022-12-08T17:54:47.275Z,56.91
2022-12-08T17:57:16.300Z,57.02
2022-12-08T17:59:42.811Z,56.74
2022-12-08T18:02:09.753Z,56.93
2022-12-08T18:04:36.292Z,57.32
2022-12-08T18:07:04.165Z,56.50
2022-12-08T18:09:31.237Z,56.99
2022-12-08T18:11:58.030Z,57.24
2022-12-08T18:14:24.613Z,57.22
2022-12-08T18:16:51.205Z,57.40
2022-12-08T18:19:20.229Z,57.50
2022-12-08T18:21:46.836Z,57.47
2022-12-08T18:24:16.975Z,57.67
2022-12-08T18:26:43.490Z,57.59
2022-12-08T18:29:12.550Z,56.85
2022-12-08T18:31:44.422Z,57.12
2022-12-08T18:34:15.359Z,56.99
2022-12-08T18:36:42.172Z,56.55
2022-12-08T18:39:13.037Z,56.38
2022-12-08T18:41:41.965Z,56.51
2022-12-08T18:44:11.057Z,56.81
2022-12-08T18:46:37.920Z,56.70
2022-12-08T18:49:09.399Z,56.53
2022-12-08T18:51:36.017Z,57.08
2022-12-08T18:54:02.521Z,57.13
2022-12-08T18:56:32.385Z,57.30
2022-12-08T18:59:03.643Z,57.75
2022-12-08T19:01:31.865Z,57.32
2022-12-08T19:06:47.668Z,56.81
2022-12-08T19:09:16.176Z,56.97
2022-12-08T19:11:47.550Z,56.88
2022-12-08T19:14:14.257Z,57.14
2022-12-08T19:16:43.292Z,56.79
2022-12-08T19:19:09.926Z,56.52
2022-12-08T19:21:44.577Z,56.81
2022-12-08T19:24:15.567Z,56.72
2022-12-08T19:26:44.482Z,56.41
2022-12-08T19:29:13.898Z,56.33
2022-12-08T19:31:40.952Z,56.27
2022-12-08T19:34:09.342Z,56.32
2022-12-08T19:36:42.141Z,56.34
2022-12-08T19:39:39.269Z,55.93
2022-12-08T19:42:31.563Z,56.02
2022-12-08T19:44:59.482Z,56.40
2022-12-08T19:47:26.612Z,56.00
2022-12-08T19:50:15.740Z,55.49
2022-12-08T19:52:42.465Z,55.79
2022-12-08T19:55:11.939Z,56.02
2022-12-08T19:57:40.642Z,55.76
2022-12-08T20:00:15.725Z,55.82
2022-12-08T20:02:51.694Z,56.27
2022-12-08T20:05:18.390Z,56.11
2022-12-08T20:07:45.074Z,55.95
2022-12-08T20:10:16.049Z,55.78
2022-12-08T20:12:42.638Z,56.00
2022-12-08T20:15:10.564Z,55.92
2022-12-08T20:17:37.660Z,55.95
2022-12-08T20:20:07.431Z,55.87
2022-12-08T20:22:34.905Z,56.04
2022-12-08T20:25:01.712Z,56.06
2022-12-08T20:27:29.260Z,56.06
2022-12-08T20:29:55.849Z,55.70
2022-12-08T20:32:29.913Z,56.12
2022-12-08T20:34:56.568Z,56.33
2022-12-08T20:37:25.568Z,56.09
2022-12-08T20:39:58.313Z,56.45
2022-12-08T20:42:27.357Z,56.42
2022-12-08T20:44:57.426Z,56.30
2022-12-08T20:47:24.057Z,56.08
2022-12-08T20:49:53.175Z,56.45
2022-12-08T20:52:22.204Z,56.39
2022-12-08T20:54:51.318Z,56.65
2022-12-08T20:57:20.405Z,56.40
2022-12-08T20:59:46.986Z,56.57
2022-12-08T21:02:13.722Z,57.18
2022-12-08T21:04:42.967Z,57.13
2022-12-08T21:07:12.445Z,57.38
2022-12-08T21:09:39.316Z,57.21
2022-12-08T21:12:06.389Z,57.09
2022-12-08T21:14:34.599Z,57.25
2022-12-08T21:17:01.384Z,57.59
2022-12-08T21:19:28.291Z,57.27
2022-12-08T21:21:54.889Z,57.36
2022-12-08T21:24:21.411Z,57.62
2022-12-08T21:26:48.362Z,57.54
2022-12-08T21:29:17.347Z,57.35
2022-12-08T21:31:44.148Z,57.54
2022-12-08T21:34:13.219Z,57.58
2022-12-08T21:36:42.178Z,57.60
2022-12-08T21:39:11.278Z,57.59
2022-12-08T21:41:56.646Z,57.52
2022-12-08T21:44:26.148Z,57.67
2022-12-08T21:46:52.759Z,58.08
2022-12-08T21:49:19.557Z,57.72
2022-12-08T21:51:48.445Z,57.75
2022-12-08T21:54:18.752Z,57.67
2022-12-08T21:56:46.269Z,57.82
2022-12-08T21:59:19.778Z,57.66
2022-12-08T22:01:49.068Z,57.86
2022-12-08T22:04:16.883Z,57.94
2022-12-08T22:06:43.536Z,58.13
2022-12-08T22:09:11.923Z,58.14
2022-12-08T22:11:38.543Z,58.28
2022-12-08T22:14:08.396Z,58.39
2022-12-08T22:16:41.604Z,58.43
2022-12-08T22:19:08.219Z,58.38
2022-12-08T22:21:35.580Z,58.38
2022-12-08T22:24:02.201Z,58.47
2022-12-08T22:26:31.027Z,58.44
2022-12-08T22:28:57.696Z,58.46
2022-12-08T22:31:24.306Z,58.58
2022-12-08T22:33:51.109Z,58.55
2022-12-08T22:36:21.258Z,58.44
2022-12-08T22:38:47.895Z,58.75
2022-12-08T22:41:17.279Z,58.36
2022-12-08T22:43:46.514Z,58.64
2022-12-08T22:46:22.755Z,58.55
2022-12-08T22:48:53.440Z,58.65
2022-12-08T22:51:20.312Z,58.76
2022-12-08T22:53:47.133Z,58.78
2022-12-08T22:56:14.345Z,58.97
2022-12-08T22:58:41.317Z,58.96
2022-12-08T23:01:08.029Z,59.36
2022-12-08T23:03:37.372Z,59.11
2022-12-08T23:06:06.669Z,59.12
2022-12-08T23:08:33.375Z,59.19
2022-12-08T23:11:00.022Z,59.27
2022-12-08T23:13:28.957Z,59.31
2022-12-08T23:15:57.838Z,59.29
2022-12-08T23:18:24.850Z,59.37
2022-12-08T23:20:53.991Z,59.72
2022-12-08T23:23:20.537Z,59.76
2022-12-08T23:25:47.303Z,59.93
2022-12-08T23:28:13.932Z,59.89
2022-12-08T23:30:40.794Z,60.02
2022-12-08T23:33:07.497Z,59.94
2022-12-08T23:35:34.156Z,59.70
2022-12-08T23:38:00.821Z,59.67
2022-12-08T23:40:27.529Z,59.74
2022-12-08T23:42:54.079Z,60.08
2022-12-08T23:45:20.771Z,59.82
2022-12-08T23:47:47.354Z,59.54
2022-12-08T23:50:14.080Z,59.70
2022-12-08T23:52:43.094Z,59.82
2022-12-08T23:55:11.127Z,59.93
2022-12-08T23:57:38.051Z,59.75
